עמוד ראשי
METAR-TAF:

METAR-TAF

שדות תעופה :

Bartow, פלורידה, ארצות הברית

קו רוחב: 27-57N, קו אורך: 081-47W, גובה: 39מטר

תצפית מזג אוויר נוכחית

הדו"ח נערך לפני 1 שעות ו 8דקות, בשעה 15:50 UTC
רוח 12קשר מכיוון מזרח
טמפרטורת 31 צלסיוס
לחות 55%
לחץ 1018 hPa
ראות: 16.1קילומטר
עננים פזורים בגובה 3200רגל

METAR: KBOW 171550Z 09012KT 10SM SCT032 31/21 A3006

זמן: 12:58 (16:58 UTC)


TAF: חסר

תצפיות ותחזיות מזג אוויר לגבי יותר מ- 4,000 שדות תעופה ברחבי העולם. דוחות METAR ו- TAF.

התחנות הזמינות מסומנות בנקודות צהובות ואדומות על גבי המפה.

העבר את העכבר לנקודה הצבעונית על מנת לראות את שם התחנה.

לאחר מכן, לחץ כדי לראות את תוכן ואת תחזיות מזג האוויר.

כדי לשנות את המפה: לחץ על הכפתורים הירוקים עם הפלוס השחור כדי להתקרב; על הכפתור הירוק עם המקף כדי להתרחק; או בחיצים הירוקים למפות סמוכות.


METAR-TAF: